createdAt,value
2022-10-23T00:01:15.855Z,97498.81
2022-10-23T00:11:21.768Z,97500.22
2022-10-23T00:21:25.094Z,97521.09
2022-10-23T00:31:27.270Z,97516.13
2022-10-23T00:41:30.233Z,97521.13
2022-10-23T00:51:38.610Z,97523.66
2022-10-23T01:01:41.472Z,97537.25
2022-10-23T01:12:05.063Z,97538.78
2022-10-23T01:22:22.345Z,97538.09
2022-10-23T01:32:31.223Z,97546.59
2022-10-23T01:42:39.985Z,97531.38
2022-10-23T01:52:42.354Z,97527.09
2022-10-23T02:02:46.260Z,97529.00
2022-10-23T02:12:59.279Z,97532.31
2022-10-23T02:23:11.411Z,97528.69
2022-10-23T02:33:14.644Z,97543.75
2022-10-23T02:43:27.684Z,97547.69
2022-10-23T02:53:53.776Z,97551.47
2022-10-23T03:03:59.305Z,97541.50
2022-10-23T03:14:01.554Z,97531.84
2022-10-23T03:24:03.982Z,97518.66
2022-10-23T03:34:11.159Z,97504.31
2022-10-23T03:44:13.300Z,97516.56
2022-10-23T03:54:15.390Z,97522.94
2022-10-23T04:04:17.592Z,97517.69
2022-10-23T04:14:20.099Z,97531.00
2022-10-23T04:24:23.522Z,97512.97
2022-10-23T04:34:25.597Z,97525.47
2022-10-23T04:44:27.680Z,97514.38
2022-10-23T04:54:29.747Z,97539.06
2022-10-23T05:04:31.878Z,97541.28
2022-10-23T05:14:34.036Z,97537.22
2022-10-23T05:24:36.211Z,97532.38
2022-10-23T05:34:39.231Z,97539.75
2022-10-23T05:44:41.527Z,97542.84
2022-10-23T05:54:43.595Z,97542.28
2022-10-23T06:04:45.684Z,97536.50
2022-10-23T06:14:48.468Z,97536.16
2022-10-23T06:24:50.715Z,97557.13
2022-10-23T06:34:52.902Z,97549.38
2022-10-23T06:44:55.479Z,97540.94
2022-10-23T06:54:57.619Z,97551.72
2022-10-23T07:04:59.712Z,97559.03
2022-10-23T07:15:01.929Z,97550.06
2022-10-23T07:25:04.337Z,97552.66
2022-10-23T07:35:07.737Z,97549.94
2022-10-23T07:45:10.416Z,97565.38
2022-10-23T07:55:12.902Z,97554.66
2022-10-23T08:05:15.052Z,97559.28
2022-10-23T08:15:17.199Z,97561.63
2022-10-23T08:25:24.710Z,97560.31
2022-10-23T08:35:27.969Z,97545.63
2022-10-23T08:46:00.112Z,97543.75
2022-10-23T08:56:07.016Z,97539.59
2022-10-23T09:06:39.444Z,97530.56
2022-10-23T09:17:05.850Z,97540.97
2022-10-23T09:27:15.147Z,97521.78
2022-10-23T09:37:37.591Z,97524.47
2022-10-23T09:47:39.834Z,97502.69
2022-10-23T09:57:44.289Z,97484.84
2022-10-23T10:07:56.303Z,97486.19
2022-10-23T10:18:09.859Z,97478.72
2022-10-23T10:28:36.758Z,97470.13
2022-10-23T10:38:59.806Z,97483.91
2022-10-23T10:49:15.489Z,97466.44
2022-10-23T10:59:41.874Z,97450.53
2022-10-23T11:09:44.125Z,97444.06
2022-10-23T11:20:03.445Z,97423.50
2022-10-23T11:30:36.202Z,97403.13
2022-10-23T11:40:45.469Z,97403.28
2022-10-23T11:50:47.572Z,97379.31
2022-10-23T12:00:55.615Z,97362.47
2022-10-23T12:10:57.974Z,97358.63
2022-10-23T12:21:03.396Z,97355.63
2022-10-23T12:31:38.926Z,97343.25
2022-10-23T12:41:42.757Z,97326.91
2022-10-23T12:51:45.461Z,97311.09
2022-10-23T13:01:52.433Z,97302.59
2022-10-23T13:11:56.288Z,97316.06
2022-10-23T13:21:59.087Z,97317.66
2022-10-23T13:32:11.986Z,97299.06
2022-10-23T13:42:15.169Z,97286.78
2022-10-23T13:52:20.907Z,97279.50
2022-10-23T14:02:24.520Z,97285.44
2022-10-23T14:12:26.705Z,97280.84
2022-10-23T14:22:28.902Z,97282.84
2022-10-23T14:32:31.434Z,97264.34
2022-10-23T14:42:34.537Z,97269.28
2022-10-23T14:52:36.614Z,97271.94
2022-10-23T15:02:38.721Z,97277.66
2022-10-23T15:12:41.250Z,97278.41
2022-10-23T15:22:43.938Z,97275.03
2022-10-23T15:32:46.356Z,97266.25
2022-10-23T15:42:49.881Z,97273.22
2022-10-23T15:52:53.468Z,97251.41
2022-10-23T16:02:55.708Z,97247.66
2022-10-23T16:12:57.809Z,97240.81
2022-10-23T16:22:59.981Z,97242.19
2022-10-23T16:33:02.102Z,97235.81
2022-10-23T16:43:04.526Z,97251.56
2022-10-23T16:53:07.410Z,97253.28
2022-10-23T17:03:10.935Z,97250.59
2022-10-23T17:13:13.176Z,97240.28
2022-10-23T17:23:15.297Z,97241.22
2022-10-23T17:33:18.058Z,97229.53
2022-10-23T17:43:20.186Z,97223.75
2022-10-23T17:53:22.260Z,97203.94
2022-10-23T18:03:24.341Z,97184.56
2022-10-23T18:13:26.413Z,97176.66
2022-10-23T18:23:29.293Z,97179.13
2022-10-23T18:33:31.464Z,97168.63
2022-10-23T18:43:44.072Z,97165.47
2022-10-23T18:53:46.949Z,97142.16
2022-10-23T19:03:49.246Z,97137.22
2022-10-23T19:13:51.748Z,97123.84
2022-10-23T19:23:53.836Z,97125.47
2022-10-23T19:33:56.123Z,97114.38
2022-10-23T19:43:58.479Z,97094.31
2022-10-23T19:54:00.959Z,97073.28
2022-10-23T20:04:03.144Z,97049.50
2022-10-23T20:14:06.422Z,97069.03
2022-10-23T20:24:08.849Z,97058.47
2022-10-23T20:40:12.537Z,97036.50
2022-10-23T20:50:14.721Z,97031.91
2022-10-23T21:00:17.208Z,97019.19
2022-10-23T21:10:19.378Z,96993.72
2022-10-23T21:20:21.450Z,96973.06
2022-10-23T21:30:23.623Z,96967.63
2022-10-23T21:40:26.430Z,96982.19
2022-10-23T21:50:28.505Z,96973.97
2022-10-23T22:00:30.684Z,96968.72
2022-10-23T22:10:35.253Z,96975.63
2022-10-23T22:20:37.392Z,96974.22
2022-10-23T22:30:39.455Z,96962.94
2022-10-23T22:40:46.376Z,96969.34
2022-10-23T22:50:48.813Z,96967.91
2022-10-23T23:00:52.298Z,96977.38
2022-10-23T23:10:56.416Z,96984.03
2022-10-23T23:21:05.420Z,97023.44
2022-10-23T23:31:13.878Z,97057.69
2022-10-23T23:41:18.816Z,97047.03
2022-10-23T23:51:23.201Z,97037.63
